Time;durP1;ratioP1;P1;durP2;ratioP2;P2;SDS_P1;SDS_P2;PMS_P1;PMS_P2;Temp;Humidity;BMP_temperature;BMP_pressure;BME280_temperature;BME280_humidity;BME280_pressure;Samples;Min_cycle;Max_cycle;Signal;HPM_P1;HPM_P2
2021/01/01 00:04:45;;;;;;;3.10;0.83;;;9.10;99.90;;;;;;20699798;28;20231;-71
2021/01/01 00:14:48;;;;;;;1.23;0.67;;;9.10;99.90;;;;;;20703007;28;20202;-72
2021/01/01 00:24:51;;;;;;;1.37;0.73;;;9.10;99.90;;;;;;20664470;28;20230;-71
2021/01/01 00:34:54;;;;;;;0.60;0.60;;;8.90;99.90;;;;;;20703354;28;20272;-73
2021/01/01 00:44:57;;;;;;;0.70;0.70;;;8.10;99.90;;;;;;20704088;28;20227;-73
2021/01/01 00:55:00;;;;;;;2.00;1.27;;;7.60;99.90;;;;;;20716036;28;20217;-74
2021/01/01 01:05:03;;;;;;;0.40;0.40;;;7.20;99.90;;;;;;20702195;28;20751;-73
2021/01/01 01:15:08;;;;;;;0.43;0.43;;;7.20;99.90;;;;;;20702065;28;20529;-74
2021/01/01 01:25:12;;;;;;;0.50;0.47;;;6.90;99.90;;;;;;20710987;28;20263;-74
2021/01/01 01:35:15;;;;;;;0.60;0.60;;;6.70;99.90;;;;;;20709607;28;20199;-74
2021/01/01 01:45:18;;;;;;;0.50;0.50;;;6.40;99.90;;;;;;20654881;28;20239;-74
2021/01/01 01:55:22;;;;;;;1.27;1.17;;;6.00;99.90;;;;;;20634099;28;20604;-74
2021/01/01 02:05:24;;;;;;;0.93;0.87;;;6.50;99.90;;;;;;20644691;28;20221;-73
2021/01/01 02:15:29;;;;;;;1.60;1.50;;;6.00;99.90;;;;;;20711589;28;20206;-73
2021/01/01 02:25:33;;;;;;;0.90;0.77;;;6.40;99.90;;;;;;20707898;28;20222;-72
2021/01/01 02:35:35;;;;;;;0.70;0.60;;;6.30;99.90;;;;;;20710800;28;20518;-74
2021/01/01 02:45:39;;;;;;;1.57;0.60;;;6.30;99.90;;;;;;20711251;28;20231;-74
2021/01/01 02:55:41;;;;;;;0.47;0.47;;;6.20;99.90;;;;;;20709044;28;20211;-73
2021/01/01 03:05:45;;;;;;;0.90;0.63;;;6.30;99.90;;;;;;20713024;28;20246;-73
2021/01/01 03:15:48;;;;;;;2.10;0.90;;;6.20;99.90;;;;;;20709883;28;20199;-74
2021/01/01 03:25:53;;;;;;;6.60;0.50;;;5.80;99.90;;;;;;20709254;28;20227;-74
2021/01/01 03:35:56;;;;;;;0.30;0.30;;;5.90;99.90;;;;;;20703948;28;20683;-73
2021/01/01 03:45:59;;;;;;;0.30;0.30;;;6.00;99.90;;;;;;20707758;28;20238;-74
2021/01/01 03:56:02;;;;;;;1.00;0.93;;;6.40;99.90;;;;;;20699357;28;20195;-75
2021/01/01 04:06:05;;;;;;;0.50;0.43;;;5.90;99.90;;;;;;20704189;28;20339;-74
2021/01/01 04:16:08;;;;;;;1.50;0.43;;;5.90;99.90;;;;;;20704079;28;20203;-76
2021/01/01 04:26:13;;;;;;;0.53;0.37;;;5.40;99.90;;;;;;20705870;28;20233;-75
2021/01/01 04:36:15;;;;;;;0.70;0.53;;;5.80;99.90;;;;;;20701399;28;20211;-76
2021/01/01 04:46:19;;;;;;;0.20;0.20;;;5.90;99.90;;;;;;20702968;28;20233;-77
2021/01/01 04:56:21;;;;;;;0.23;0.20;;;6.20;99.90;;;;;;20718585;28;20679;-75
2021/01/01 05:06:31;;;;;;;5.20;0.30;;;6.60;99.90;;;;;;20720119;28;20279;-76
2021/01/01 05:16:34;;;;;;;0.40;0.40;;;7.10;99.90;;;;;;20718082;28;20199;-74
2021/01/01 05:26:41;;;;;;;0.20;0.20;;;7.70;99.90;;;;;;20715800;28;20699;-76
2021/01/01 05:36:45;;;;;;;0.30;0.30;;;7.50;99.90;;;;;;20715327;28;20695;-77
2021/01/01 05:47:05;;;;;;;0.30;0.30;;;7.60;99.90;;;;;;20714610;28;20550;-75
2021/01/01 05:57:15;;;;;;;2.00;0.50;;;7.60;99.90;;;;;;20714343;28;20559;-76
2021/01/01 06:07:21;;;;;;;2.63;0.40;;;7.20;99.90;;;;;;20712095;28;20880;-76
2021/01/01 06:17:30;;;;;;;8.00;1.17;;;7.10;99.90;;;;;;20709904;28;20199;-75
2021/01/01 06:27:33;;;;;;;1.80;0.67;;;7.10;99.90;;;;;;20713025;28;20246;-75
2021/01/01 06:37:41;;;;;;;0.23;0.23;;;7.40;99.90;;;;;;20709733;28;20222;-76
2021/01/01 06:47:44;;;;;;;0.20;0.10;;;7.50;99.90;;;;;;20711381;28;20202;-75
2021/01/01 06:57:50;;;;;;;0.27;0.23;;;7.50;99.90;;;;;;20708424;28;20198;-76
2021/01/01 07:07:53;;;;;;;1.90;0.97;;;7.20;99.90;;;;;;20708589;28;20781;-75
2021/01/01 07:17:56;;;;;;;0.67;0.53;;;7.30;99.90;;;;;;20707224;28;20202;-75
2021/01/01 07:28:01;;;;;;;0.93;0.73;;;7.10;99.90;;;;;;20709050;28;20199;-76
2021/01/01 07:38:04;;;;;;;0.47;0.30;;;7.20;99.90;;;;;;20708520;28;20603;-76
2021/01/01 07:48:08;;;;;;;0.20;0.10;;;7.60;99.90;;;;;;20706426;28;20807;-74
2021/01/01 07:58:12;;;;;;;0.20;0.10;;;8.20;99.90;;;;;;20705721;28;20222;-74
2021/01/01 08:08:17;;;;;;;0.60;0.50;;;8.90;99.90;;;;;;20704200;28;20203;-74
2021/01/01 08:18:21;;;;;;;0.30;0.20;;;9.30;99.90;;;;;;20712314;28;20218;-74
2021/01/01 08:28:26;;;;;;;0.20;0.10;;;8.60;99.90;;;;;;20700216;28;20218;-73
2021/01/01 08:38:29;;;;;;;0.20;0.20;;;8.80;99.90;;;;;;20702744;28;20632;-76
2021/01/01 08:48:32;;;;;;;0.20;0.10;;;9.60;99.90;;;;;;20700484;28;20216;-74
2021/01/01 08:58:35;;;;;;;0.30;0.13;;;10.40;99.90;;;;;;20701988;28;20233;-74
2021/01/01 09:09:06;;;;;;;0.50;0.40;;;10.60;99.90;;;;;;20702833;28;20198;-75
2021/01/01 09:19:10;;;;;;;0.20;0.20;;;10.40;99.90;;;;;;20701308;28;20496;-73
2021/01/01 09:29:20;;;;;;;0.57;0.20;;;10.00;99.90;;;;;;20700702;28;20191;-74
2021/01/01 09:39:22;;;;;;;0.20;0.20;;;9.50;99.90;;;;;;20711058;28;20604;-74
2021/01/01 09:49:25;;;;;;;0.40;0.40;;;9.50;99.90;;;;;;20711251;28;20195;-74
2021/01/01 09:59:28;;;;;;;0.50;0.20;;;9.40;99.90;;;;;;20712349;28;20225;-73
2021/01/01 10:09:31;;;;;;;0.20;0.10;;;9.30;99.90;;;;;;20707032;28;20221;-72
2021/01/01 10:19:34;;;;;;;0.20;0.20;;;9.50;99.90;;;;;;20708992;28;20214;-75
2021/01/01 10:29:38;;;;;;;0.20;0.10;;;9.80;99.90;;;;;;20707100;28;20191;-74
2021/01/01 10:39:40;;;;;;;0.20;0.10;;;9.90;99.90;;;;;;20707533;28;20234;-74
2021/01/01 10:49:44;;;;;;;0.20;0.00;;;10.10;99.90;;;;;;20706298;28;20664;-75
2021/01/01 10:59:46;;;;;;;0.20;0.10;;;10.30;99.90;;;;;;20708862;28;20230;-73
2021/01/01 11:09:50;;;;;;;0.20;0.10;;;10.50;99.90;;;;;;20705055;28;20602;-73
2021/01/01 12:22:13;;;;;;;0.37;0.37;;;10.10;99.90;;;;;;20695762;28;20714;-74
2021/01/01 12:32:19;;;;;;;1.17;1.13;;;10.50;99.90;;;;;;20696292;28;20213;-71
2021/01/01 12:42:22;;;;;;;0.97;0.30;;;10.20;99.90;;;;;;20693144;28;20234;-73
2021/01/01 12:52:28;;;;;;;1.33;1.10;;;10.00;99.90;;;;;;20699848;28;20660;-72
2021/01/01 13:02:31;;;;;;;2.13;1.30;;;9.90;99.90;;;;;;20696357;28;20693;-73
2021/01/01 13:12:35;;;;;;;1.33;1.03;;;9.90;99.90;;;;;;20709592;28;20283;-76
2021/01/01 13:22:37;;;;;;;2.10;1.20;;;9.80;99.90;;;;;;20715691;28;20218;-75
2021/01/01 13:32:40;;;;;;;1.43;1.03;;;9.70;99.90;;;;;;20719211;28;20199;-76
2021/01/01 13:42:43;;;;;;;1.07;0.77;;;9.80;99.90;;;;;;20715422;28;20235;-74
2021/01/01 13:52:47;;;;;;;4.87;2.27;;;9.90;99.90;;;;;;20708642;28;20530;-74
2021/01/01 14:02:49;;;;;;;2.57;1.13;;;9.90;99.90;;;;;;20712985;28;20248;-73
2021/01/01 14:12:53;;;;;;;3.90;1.17;;;9.90;99.90;;;;;;20714716;28;20194;-72
2021/01/01 14:22:56;;;;;;;0.67;0.63;;;10.00;99.90;;;;;;20712943;28;20230;-73
2021/01/01 14:33:00;;;;;;;0.97;0.97;;;10.10;99.90;;;;;;20709976;28;20222;-77
2021/01/01 14:43:04;;;;;;;0.70;0.70;;;10.00;99.90;;;;;;20710167;28;20241;-73
2021/01/01 14:53:08;;;;;;;0.77;0.77;;;10.10;99.90;;;;;;20707542;28;20199;-72
2021/01/01 15:03:10;;;;;;;3.10;1.20;;;10.10;99.90;;;;;;20705901;28;20230;-73
2021/01/01 15:13:14;;;;;;;0.30;0.30;;;10.10;99.90;;;;;;20706390;28;20280;-74
2021/01/01 15:23:17;;;;;;;2.80;1.50;;;10.10;99.90;;;;;;20703960;28;20235;-74
2021/01/01 15:33:21;;;;;;;5.47;1.50;;;10.10;99.90;;;;;;20737009;28;20664;-71
2021/01/01 15:43:23;;;;;;;0.80;0.40;;;10.00;99.90;;;;;;20703762;28;20230;-73
2021/01/01 15:53:27;;;;;;;1.83;1.13;;;10.00;99.90;;;;;;20701808;28;20198;-73
2021/01/01 16:03:30;;;;;;;0.90;0.87;;;9.80;99.90;;;;;;20701576;28;20219;-72
2021/01/01 16:13:33;;;;;;;2.03;1.30;;;9.70;99.90;;;;;;20702282;28;20273;-73
2021/01/01 16:23:41;;;;;;;1.13;1.07;;;9.50;99.90;;;;;;20702498;28;20223;-73
2021/01/01 16:33:45;;;;;;;0.60;0.60;;;9.40;99.90;;;;;;20694040;28;20203;-72
2021/01/01 16:43:47;;;;;;;2.73;1.00;;;9.40;99.90;;;;;;20676700;28;20325;-74
2021/01/01 16:53:51;;;;;;;1.43;1.17;;;9.50;99.90;;;;;;20699450;28;20202;-73
2021/01/01 17:03:53;;;;;;;0.53;0.53;;;9.40;99.90;;;;;;20694940;28;20573;-75
2021/01/01 17:13:57;;;;;;;3.37;1.40;;;9.40;99.90;;;;;;20699314;28;20195;-74
2021/01/01 17:24:00;;;;;;;1.60;1.13;;;9.40;99.90;;;;;;20695102;28;20227;-73
2021/01/01 17:34:06;;;;;;;2.97;1.20;;;9.10;99.90;;;;;;20695058;28;20199;-74
2021/01/01 17:44:08;;;;;;;2.93;2.03;;;9.10;99.90;;;;;;20699164;28;20222;-73
2021/01/01 17:54:18;;;;;;;1.13;1.13;;;8.90;99.90;;;;;;20700581;28;20268;-72
2021/01/01 18:04:23;;;;;;;4.50;1.63;;;8.90;99.90;;;;;;20691591;28;20223;-73
2021/01/01 18:14:26;;;;;;;0.80;0.67;;;8.80;99.90;;;;;;20698806;28;20195;-75
2021/01/01 18:24:29;;;;;;;6.17;1.10;;;8.60;99.90;;;;;;20707987;28;20235;-74
2021/01/01 18:34:33;;;;;;;2.27;1.37;;;8.60;99.90;;;;;;20709993;28;20708;-78
2021/01/01 18:44:36;;;;;;;1.70;1.10;;;8.30;99.90;;;;;;20706599;28;20746;-79
2021/01/01 18:54:41;;;;;;;1.50;1.13;;;8.20;99.90;;;;;;20707423;28;20197;-78
2021/01/01 19:05:02;;;;;;;2.13;1.37;;;8.00;99.90;;;;;;20708392;28;20808;-77
2021/01/01 19:15:07;;;;;;;4.00;1.53;;;7.80;99.90;;;;;;20712403;28;20669;-78
2021/01/01 19:25:10;;;;;;;2.00;1.80;;;7.80;99.90;;;;;;20714229;28;20211;-78
2021/01/01 19:35:25;;;;;;;0.87;0.87;;;7.70;99.90;;;;;;20718739;28;20286;-77
2021/01/01 19:45:44;;;;;;;1.47;1.37;;;7.20;99.90;;;;;;20710261;28;20239;-79
2021/01/01 19:55:50;;;;;;;3.00;2.00;;;7.00;99.90;;;;;;20692922;28;20597;-78
2021/01/01 20:05:58;;;;;;;5.93;1.90;;;7.10;99.90;;;;;;20703246;28;20218;-79
2021/01/01 20:16:13;;;;;;;3.97;2.63;;;7.00;99.90;;;;;;20706767;28;20199;-78
2021/01/01 20:26:18;;;;;;;1.37;1.27;;;7.30;99.90;;;;;;20701047;28;20229;-78
2021/01/01 20:36:24;;;;;;;2.10;1.77;;;7.50;99.90;;;;;;20701649;28;20178;-78
2021/01/01 20:57:05;;;;;;;3.30;2.13;;;7.20;99.90;;;;;;20664236;28;20586;-79
2021/01/01 21:07:18;;;;;;;0.67;0.67;;;7.00;99.90;;;;;;20696854;28;20360;-78
2021/01/01 21:17:28;;;;;;;0.83;0.83;;;6.80;99.90;;;;;;20693685;28;20647;-78
2021/01/01 21:28:01;;;;;;;0.83;0.67;;;6.90;99.90;;;;;;20693550;28;20222;-78
2021/01/01 21:38:40;;;;;;;0.57;0.37;;;7.50;99.90;;;;;;20678911;28;870601;-80
2021/01/01 21:49:01;;;;;;;1.43;1.33;;;7.50;99.90;;;;;;20714354;28;20230;-78
2021/01/01 21:59:06;;;;;;;3.33;0.83;;;7.10;99.90;;;;;;20713968;28;20368;-73
2021/01/01 22:09:09;;;;;;;0.50;0.50;;;7.10;99.90;;;;;;20710549;28;20218;-74
2021/01/01 22:19:13;;;;;;;1.23;1.17;;;6.80;99.90;;;;;;20710255;28;21088;-72
2021/01/01 22:29:16;;;;;;;4.90;1.73;;;6.50;99.90;;;;;;20710313;28;20195;-72
2021/01/01 22:39:21;;;;;;;0.97;0.57;;;6.40;99.90;;;;;;20709539;28;20573;-76
2021/01/01 22:49:23;;;;;;;0.83;0.80;;;6.40;99.90;;;;;;20708838;28;20217;-74
2021/01/01 22:59:32;;;;;;;0.60;0.40;;;6.70;99.90;;;;;;20709836;28;20218;-73
2021/01/01 23:09:36;;;;;;;0.80;0.73;;;6.70;99.90;;;;;;20703927;28;20198;-72
2021/01/01 23:19:44;;;;;;;0.20;0.10;;;6.50;99.90;;;;;;20706803;28;20225;-74
2021/01/01 23:30:03;;;;;;;0.80;0.80;;;6.30;99.90;;;;;;20706674;28;20194;-74
2021/01/01 23:40:15;;;;;;;0.80;0.70;;;6.30;99.90;;;;;;20703435;28;20230;-72
2021/01/01 23:50:18;;;;;;;1.07;0.40;;;6.40;99.90;;;;;;20704751;28;20191;-73
